sensor_id;sensor_type;location;lat;lon;timestamp;temperature;humidity
83466;DHT22;73393;51.946;20.140;2024-02-16T00:00:47;7.10;82.80
83466;DHT22;73393;51.946;20.140;2024-02-16T00:03:13;7.10;82.80
83466;DHT22;73393;51.946;20.140;2024-02-16T00:05:39;7.10;83.00
83466;DHT22;73393;51.946;20.140;2024-02-16T00:08:04;7.00;83.10
83466;DHT22;73393;51.946;20.140;2024-02-16T00:10:30;7.00;83.10
83466;DHT22;73393;51.946;20.140;2024-02-16T00:12:56;6.90;83.40
83466;DHT22;73393;51.946;20.140;2024-02-16T00:15:22;6.80;83.80
83466;DHT22;73393;51.946;20.140;2024-02-16T00:17:48;6.80;84.20
83466;DHT22;73393;51.946;20.140;2024-02-16T00:20:13;6.70;84.40
83466;DHT22;73393;51.946;20.140;2024-02-16T00:22:39;6.60;84.60
83466;DHT22;73393;51.946;20.140;2024-02-16T00:25:05;6.60;84.60
83466;DHT22;73393;51.946;20.140;2024-02-16T00:27:31;6.50;85.00
83466;DHT22;73393;51.946;20.140;2024-02-16T00:29:57;6.50;85.10
83466;DHT22;73393;51.946;20.140;2024-02-16T00:32:22;6.50;85.40
83466;DHT22;73393;51.946;20.140;2024-02-16T00:34:50;6.40;85.70
83466;DHT22;73393;51.946;20.140;2024-02-16T00:37:19;6.40;85.60
83466;DHT22;73393;51.946;20.140;2024-02-16T00:39:44;6.40;85.90
83466;DHT22;73393;51.946;20.140;2024-02-16T00:42:10;6.30;85.90
83466;DHT22;73393;51.946;20.140;2024-02-16T00:44:36;6.30;86.00
83466;DHT22;73393;51.946;20.140;2024-02-16T00:47:02;6.30;86.30
83466;DHT22;73393;51.946;20.140;2024-02-16T00:49:28;6.20;86.50
83466;DHT22;73393;51.946;20.140;2024-02-16T00:51:53;6.10;86.80
83466;DHT22;73393;51.946;20.140;2024-02-16T00:54:19;6.10;86.60
83466;DHT22;73393;51.946;20.140;2024-02-16T00:56:45;6.10;86.60
83466;DHT22;73393;51.946;20.140;2024-02-16T00:59:12;6.10;86.70
83466;DHT22;73393;51.946;20.140;2024-02-16T01:01:38;6.10;86.70
83466;DHT22;73393;51.946;20.140;2024-02-16T01:04:04;6.10;87.00
83466;DHT22;73393;51.946;20.140;2024-02-16T01:06:29;6.10;87.00
83466;DHT22;73393;51.946;20.140;2024-02-16T01:08:55;6.00;87.10
83466;DHT22;73393;51.946;20.140;2024-02-16T01:11:21;6.00;87.30
83466;DHT22;73393;51.946;20.140;2024-02-16T01:13:47;6.00;87.30
83466;DHT22;73393;51.946;20.140;2024-02-16T01:16:13;6.00;87.30
83466;DHT22;73393;51.946;20.140;2024-02-16T01:18:39;6.00;87.50
83466;DHT22;73393;51.946;20.140;2024-02-16T01:21:05;5.90;87.50
83466;DHT22;73393;51.946;20.140;2024-02-16T01:23:31;5.90;87.70
83466;DHT22;73393;51.946;20.140;2024-02-16T01:25:56;5.90;87.60
83466;DHT22;73393;51.946;20.140;2024-02-16T01:28:22;5.80;87.90
83466;DHT22;73393;51.946;20.140;2024-02-16T01:30:49;5.80;88.00
83466;DHT22;73393;51.946;20.140;2024-02-16T01:33:14;5.80;87.90
83466;DHT22;73393;51.946;20.140;2024-02-16T01:35:40;5.80;87.90
83466;DHT22;73393;51.946;20.140;2024-02-16T01:38:06;5.80;88.00
83466;DHT22;73393;51.946;20.140;2024-02-16T01:40:31;5.80;87.80
83466;DHT22;73393;51.946;20.140;2024-02-16T01:42:57;5.70;87.90
83466;DHT22;73393;51.946;20.140;2024-02-16T01:45:23;5.70;87.80
83466;DHT22;73393;51.946;20.140;2024-02-16T01:47:50;5.80;88.00
83466;DHT22;73393;51.946;20.140;2024-02-16T01:50:17;5.70;87.80
83466;DHT22;73393;51.946;20.140;2024-02-16T01:52:48;5.70;88.20
83466;DHT22;73393;51.946;20.140;2024-02-16T01:55:15;5.60;88.10
83466;DHT22;73393;51.946;20.140;2024-02-16T01:57:47;5.70;88.10
83466;DHT22;73393;51.946;20.140;2024-02-16T02:00:14;5.60;88.20
83466;DHT22;73393;51.946;20.140;2024-02-16T02:02:46;5.70;88.10
83466;DHT22;73393;51.946;20.140;2024-02-16T02:05:12;5.70;88.00
83466;DHT22;73393;51.946;20.140;2024-02-16T02:07:38;5.60;88.00
83466;DHT22;73393;51.946;20.140;2024-02-16T02:10:04;5.60;88.10
83466;DHT22;73393;51.946;20.140;2024-02-16T02:12:30;5.60;88.10
83466;DHT22;73393;51.946;20.140;2024-02-16T02:14:55;5.60;88.00
83466;DHT22;73393;51.946;20.140;2024-02-16T02:17:21;5.60;87.80
83466;DHT22;73393;51.946;20.140;2024-02-16T02:19:46;5.60;87.60
83466;DHT22;73393;51.946;20.140;2024-02-16T02:22:19;5.60;87.60
83466;DHT22;73393;51.946;20.140;2024-02-16T02:24:45;5.60;87.40
83466;DHT22;73393;51.946;20.140;2024-02-16T02:27:11;5.60;87.40
83466;DHT22;73393;51.946;20.140;2024-02-16T02:29:37;5.50;87.20
83466;DHT22;73393;51.946;20.140;2024-02-16T02:32:02;5.60;87.60
83466;DHT22;73393;51.946;20.140;2024-02-16T02:34:29;5.50;87.30
83466;DHT22;73393;51.946;20.140;2024-02-16T02:36:54;5.50;87.60
83466;DHT22;73393;51.946;20.140;2024-02-16T02:39:20;5.50;87.30
83466;DHT22;73393;51.946;20.140;2024-02-16T02:41:46;5.50;87.30
83466;DHT22;73393;51.946;20.140;2024-02-16T02:44:12;5.50;87.10
83466;DHT22;73393;51.946;20.140;2024-02-16T02:46:38;5.50;87.10
83466;DHT22;73393;51.946;20.140;2024-02-16T02:49:03;5.40;87.10
83466;DHT22;73393;51.946;20.140;2024-02-16T02:51:30;5.40;87.30
83466;DHT22;73393;51.946;20.140;2024-02-16T02:53:55;5.40;87.20
83466;DHT22;73393;51.946;20.140;2024-02-16T02:56:21;5.30;87.30
83466;DHT22;73393;51.946;20.140;2024-02-16T02:58:47;5.20;87.60
83466;DHT22;73393;51.946;20.140;2024-02-16T03:01:13;5.20;87.60
83466;DHT22;73393;51.946;20.140;2024-02-16T03:03:41;5.20;87.90
83466;DHT22;73393;51.946;20.140;2024-02-16T03:06:08;5.10;88.00
83466;DHT22;73393;51.946;20.140;2024-02-16T03:08:35;5.10;88.10
83466;DHT22;73393;51.946;20.140;2024-02-16T03:11:00;5.00;88.30
83466;DHT22;73393;51.946;20.140;2024-02-16T03:13:26;4.90;88.70
83466;DHT22;73393;51.946;20.140;2024-02-16T03:15:52;4.90;88.70
83466;DHT22;73393;51.946;20.140;2024-02-16T03:18:19;4.80;88.80
83466;DHT22;73393;51.946;20.140;2024-02-16T03:20:45;4.80;89.00
83466;DHT22;73393;51.946;20.140;2024-02-16T03:23:14;4.70;89.00
83466;DHT22;73393;51.946;20.140;2024-02-16T03:25:40;4.70;89.20
83466;DHT22;73393;51.946;20.140;2024-02-16T03:28:09;4.60;89.20
83466;DHT22;73393;51.946;20.140;2024-02-16T03:30:35;4.50;89.50
83466;DHT22;73393;51.946;20.140;2024-02-16T03:33:00;4.40;89.40
83466;DHT22;73393;51.946;20.140;2024-02-16T03:35:26;4.30;89.40
83466;DHT22;73393;51.946;20.140;2024-02-16T03:37:52;4.20;89.30
83466;DHT22;73393;51.946;20.140;2024-02-16T03:40:18;4.20;89.70
83466;DHT22;73393;51.946;20.140;2024-02-16T03:42:44;4.20;89.70
83466;DHT22;73393;51.946;20.140;2024-02-16T03:45:10;4.20;89.90
83466;DHT22;73393;51.946;20.140;2024-02-16T03:47:35;4.10;90.50
83466;DHT22;73393;51.946;20.140;2024-02-16T03:50:02;4.10;91.10
83466;DHT22;73393;51.946;20.140;2024-02-16T03:52:28;4.10;91.30
83466;DHT22;73393;51.946;20.140;2024-02-16T03:54:53;4.10;91.50
83466;DHT22;73393;51.946;20.140;2024-02-16T03:57:19;4.00;91.50
83466;DHT22;73393;51.946;20.140;2024-02-16T03:59:45;4.00;91.60
83466;DHT22;73393;51.946;20.140;2024-02-16T04:02:11;3.90;91.50
83466;DHT22;73393;51.946;20.140;2024-02-16T04:04:38;3.90;91.50
83466;DHT22;73393;51.946;20.140;2024-02-16T04:07:04;3.80;91.30
83466;DHT22;73393;51.946;20.140;2024-02-16T04:09:32;3.90;91.40
83466;DHT22;73393;51.946;20.140;2024-02-16T04:11:58;3.80;91.60
83466;DHT22;73393;51.946;20.140;2024-02-16T04:14:23;3.80;91.80
83466;DHT22;73393;51.946;20.140;2024-02-16T04:16:49;3.80;91.80
83466;DHT22;73393;51.946;20.140;2024-02-16T04:19:14;3.70;91.50
83466;DHT22;73393;51.946;20.140;2024-02-16T04:21:40;3.60;91.10
83466;DHT22;73393;51.946;20.140;2024-02-16T04:24:06;3.60;90.90
83466;DHT22;73393;51.946;20.140;2024-02-16T04:26:31;3.50;90.40
83466;DHT22;73393;51.946;20.140;2024-02-16T04:28:57;3.50;90.80
83466;DHT22;73393;51.946;20.140;2024-02-16T04:31:22;3.50;91.10
83466;DHT22;73393;51.946;20.140;2024-02-16T04:33:48;3.40;90.50
83466;DHT22;73393;51.946;20.140;2024-02-16T04:36:14;3.30;90.90
83466;DHT22;73393;51.946;20.140;2024-02-16T04:38:40;3.30;91.60
83466;DHT22;73393;51.946;20.140;2024-02-16T04:41:06;3.30;92.20
83466;DHT22;73393;51.946;20.140;2024-02-16T04:43:32;3.30;92.30
83466;DHT22;73393;51.946;20.140;2024-02-16T04:45:58;3.30;92.10
83466;DHT22;73393;51.946;20.140;2024-02-16T04:48:23;3.30;92.10
83466;DHT22;73393;51.946;20.140;2024-02-16T04:50:49;3.20;91.50
83466;DHT22;73393;51.946;20.140;2024-02-16T04:53:14;3.20;91.80
83466;DHT22;73393;51.946;20.140;2024-02-16T04:55:40;3.20;91.60
83466;DHT22;73393;51.946;20.140;2024-02-16T04:58:05;3.10;91.80
83466;DHT22;73393;51.946;20.140;2024-02-16T05:00:35;3.10;92.40
83466;DHT22;73393;51.946;20.140;2024-02-16T05:03:01;3.10;92.60
83466;DHT22;73393;51.946;20.140;2024-02-16T05:05:27;3.10;92.90
83466;DHT22;73393;51.946;20.140;2024-02-16T05:07:53;3.20;92.80
83466;DHT22;73393;51.946;20.140;2024-02-16T05:10:18;3.10;92.70
83466;DHT22;73393;51.946;20.140;2024-02-16T05:12:45;3.10;93.00
83466;DHT22;73393;51.946;20.140;2024-02-16T05:15:11;3.20;93.00
83466;DHT22;73393;51.946;20.140;2024-02-16T05:17:39;3.30;92.80
83466;DHT22;73393;51.946;20.140;2024-02-16T05:20:09;3.20;92.80
83466;DHT22;73393;51.946;20.140;2024-02-16T05:22:38;3.20;93.30
83466;DHT22;73393;51.946;20.140;2024-02-16T05:25:04;3.30;93.30
83466;DHT22;73393;51.946;20.140;2024-02-16T05:27:30;3.40;93.10
83466;DHT22;73393;51.946;20.140;2024-02-16T05:29:55;3.50;93.20
83466;DHT22;73393;51.946;20.140;2024-02-16T05:32:22;3.50;93.20
83466;DHT22;73393;51.946;20.140;2024-02-16T05:34:48;3.50;93.10
83466;DHT22;73393;51.946;20.140;2024-02-16T05:37:14;3.50;93.00
83466;DHT22;73393;51.946;20.140;2024-02-16T05:39:40;3.40;92.90
83466;DHT22;73393;51.946;20.140;2024-02-16T05:42:20;3.50;93.20
83466;DHT22;73393;51.946;20.140;2024-02-16T05:44:47;3.50;92.90
83466;DHT22;73393;51.946;20.140;2024-02-16T05:47:14;3.60;92.80
83466;DHT22;73393;51.946;20.140;2024-02-16T05:49:39;3.60;92.80
83466;DHT22;73393;51.946;20.140;2024-02-16T05:52:05;3.60;92.60
83466;DHT22;73393;51.946;20.140;2024-02-16T05:54:44;3.70;92.70
83466;DHT22;73393;51.946;20.140;2024-02-16T05:57:10;3.70;92.80
83466;DHT22;73393;51.946;20.140;2024-02-16T05:59:36;3.70;92.60
83466;DHT22;73393;51.946;20.140;2024-02-16T06:02:01;3.70;92.30
83466;DHT22;73393;51.946;20.140;2024-02-16T06:04:27;3.70;92.00
83466;DHT22;73393;51.946;20.140;2024-02-16T06:06:52;3.70;91.80
83466;DHT22;73393;51.946;20.140;2024-02-16T06:09:19;3.70;91.60
83466;DHT22;73393;51.946;20.140;2024-02-16T06:11:45;3.70;91.80
83466;DHT22;73393;51.946;20.140;2024-02-16T06:14:10;3.60;92.00
83466;DHT22;73393;51.946;20.140;2024-02-16T06:16:37;3.70;92.50
83466;DHT22;73393;51.946;20.140;2024-02-16T06:19:05;3.70;92.30
83466;DHT22;73393;51.946;20.140;2024-02-16T06:21:33;3.80;92.30
83466;DHT22;73393;51.946;20.140;2024-02-16T06:23:58;3.80;92.40
83466;DHT22;73393;51.946;20.140;2024-02-16T06:26:24;3.80;92.50
83466;DHT22;73393;51.946;20.140;2024-02-16T06:28:49;3.90;92.60
83466;DHT22;73393;51.946;20.140;2024-02-16T06:31:15;4.00;92.20
83466;DHT22;73393;51.946;20.140;2024-02-16T06:33:40;4.10;91.70
83466;DHT22;73393;51.946;20.140;2024-02-16T06:36:06;4.20;91.30
83466;DHT22;73393;51.946;20.140;2024-02-16T06:38:32;4.20;90.80
83466;DHT22;73393;51.946;20.140;2024-02-16T06:40:58;4.30;90.50
83466;DHT22;73393;51.946;20.140;2024-02-16T06:43:23;4.30;90.00
83466;DHT22;73393;51.946;20.140;2024-02-16T06:45:49;4.40;89.80
83466;DHT22;73393;51.946;20.140;2024-02-16T06:48:14;4.50;89.70
83466;DHT22;73393;51.946;20.140;2024-02-16T06:50:40;4.50;89.30
83466;DHT22;73393;51.946;20.140;2024-02-16T06:53:06;4.60;89.00
83466;DHT22;73393;51.946;20.140;2024-02-16T06:55:31;4.60;88.70
83466;DHT22;73393;51.946;20.140;2024-02-16T06:57:57;4.70;88.30
83466;DHT22;73393;51.946;20.140;2024-02-16T07:00:22;4.80;88.50
83466;DHT22;73393;51.946;20.140;2024-02-16T07:02:48;4.90;87.90
83466;DHT22;73393;51.946;20.140;2024-02-16T07:05:13;5.00;87.60
83466;DHT22;73393;51.946;20.140;2024-02-16T07:07:40;5.10;87.20
83466;DHT22;73393;51.946;20.140;2024-02-16T07:10:07;5.20;86.60
83466;DHT22;73393;51.946;20.140;2024-02-16T07:12:33;5.20;85.90
83466;DHT22;73393;51.946;20.140;2024-02-16T07:14:59;5.30;85.70
83466;DHT22;73393;51.946;20.140;2024-02-16T07:17:24;5.40;85.80
83466;DHT22;73393;51.946;20.140;2024-02-16T07:19:51;5.40;84.60
83466;DHT22;73393;51.946;20.140;2024-02-16T07:22:17;5.60;85.00
83466;DHT22;73393;51.946;20.140;2024-02-16T07:24:42;5.60;84.50
83466;DHT22;73393;51.946;20.140;2024-02-16T07:27:08;5.80;84.20
83466;DHT22;73393;51.946;20.140;2024-02-16T07:29:33;5.80;83.90
83466;DHT22;73393;51.946;20.140;2024-02-16T07:32:01;6.00;83.30
83466;DHT22;73393;51.946;20.140;2024-02-16T07:34:26;6.00;82.90
83466;DHT22;73393;51.946;20.140;2024-02-16T07:36:53;6.20;82.90
83466;DHT22;73393;51.946;20.140;2024-02-16T07:39:20;6.20;82.50
83466;DHT22;73393;51.946;20.140;2024-02-16T07:41:48;6.30;82.80
83466;DHT22;73393;51.946;20.140;2024-02-16T07:44:14;6.40;82.20
83466;DHT22;73393;51.946;20.140;2024-02-16T07:46:40;6.50;81.50
83466;DHT22;73393;51.946;20.140;2024-02-16T07:49:07;6.50;81.30
83466;DHT22;73393;51.946;20.140;2024-02-16T07:51:33;6.60;81.00
83466;DHT22;73393;51.946;20.140;2024-02-16T07:53:58;6.70;80.90
83466;DHT22;73393;51.946;20.140;2024-02-16T07:56:24;6.70;80.50
83466;DHT22;73393;51.946;20.140;2024-02-16T07:58:49;6.70;80.40
83466;DHT22;73393;51.946;20.140;2024-02-16T08:01:15;6.80;80.60
83466;DHT22;73393;51.946;20.140;2024-02-16T08:03:41;6.80;80.50
83466;DHT22;73393;51.946;20.140;2024-02-16T08:06:07;6.90;79.70
83466;DHT22;73393;51.946;20.140;2024-02-16T08:08:32;6.90;79.60
83466;DHT22;73393;51.946;20.140;2024-02-16T08:10:58;6.90;79.80
83466;DHT22;73393;51.946;20.140;2024-02-16T08:13:23;6.90;79.90
83466;DHT22;73393;51.946;20.140;2024-02-16T08:15:49;7.00;80.10
83466;DHT22;73393;51.946;20.140;2024-02-16T08:18:17;7.10;80.00
83466;DHT22;73393;51.946;20.140;2024-02-16T08:20:43;7.20;79.80
83466;DHT22;73393;51.946;20.140;2024-02-16T08:23:09;7.30;79.80
83466;DHT22;73393;51.946;20.140;2024-02-16T08:25:34;7.30;79.20
83466;DHT22;73393;51.946;20.140;2024-02-16T08:28:00;7.50;78.90
83466;DHT22;73393;51.946;20.140;2024-02-16T08:30:27;7.60;78.50
83466;DHT22;73393;51.946;20.140;2024-02-16T08:32:52;7.70;78.30
83466;DHT22;73393;51.946;20.140;2024-02-16T08:35:19;7.70;77.70
83466;DHT22;73393;51.946;20.140;2024-02-16T08:37:45;7.80;78.30
83466;DHT22;73393;51.946;20.140;2024-02-16T08:40:12;7.90;77.50
83466;DHT22;73393;51.946;20.140;2024-02-16T08:42:41;7.90;77.60
83466;DHT22;73393;51.946;20.140;2024-02-16T08:45:10;8.00;77.90
83466;DHT22;73393;51.946;20.140;2024-02-16T08:47:37;8.10;77.80
83466;DHT22;73393;51.946;20.140;2024-02-16T08:50:04;8.20;77.50
83466;DHT22;73393;51.946;20.140;2024-02-16T08:52:31;8.30;77.30
83466;DHT22;73393;51.946;20.140;2024-02-16T08:54:56;8.30;77.60
83466;DHT22;73393;51.946;20.140;2024-02-16T08:57:22;8.40;76.70
83466;DHT22;73393;51.946;20.140;2024-02-16T08:59:47;8.50;76.70
83466;DHT22;73393;51.946;20.140;2024-02-16T09:02:13;8.60;76.50
83466;DHT22;73393;51.946;20.140;2024-02-16T09:04:38;8.70;76.20
83466;DHT22;73393;51.946;20.140;2024-02-16T09:07:05;8.70;75.90
83466;DHT22;73393;51.946;20.140;2024-02-16T09:09:31;8.80;75.60
83466;DHT22;73393;51.946;20.140;2024-02-16T09:11:56;8.80;75.70
83466;DHT22;73393;51.946;20.140;2024-02-16T09:14:23;9.00;75.60
83466;DHT22;73393;51.946;20.140;2024-02-16T09:16:49;9.10;74.90
83466;DHT22;73393;51.946;20.140;2024-02-16T09:19:17;9.10;74.80
83466;DHT22;73393;51.946;20.140;2024-02-16T09:21:42;9.20;74.70
83466;DHT22;73393;51.946;20.140;2024-02-16T09:24:08;9.30;74.40
83466;DHT22;73393;51.946;20.140;2024-02-16T09:26:36;9.40;74.60
83466;DHT22;73393;51.946;20.140;2024-02-16T09:29:02;9.40;73.90
83466;DHT22;73393;51.946;20.140;2024-02-16T09:31:28;9.50;73.80
83466;DHT22;73393;51.946;20.140;2024-02-16T09:33:53;9.60;73.70
83466;DHT22;73393;51.946;20.140;2024-02-16T09:36:19;9.60;73.70
83466;DHT22;73393;51.946;20.140;2024-02-16T09:38:45;9.80;73.90
83466;DHT22;73393;51.946;20.140;2024-02-16T09:41:10;9.90;73.70
83466;DHT22;73393;51.946;20.140;2024-02-16T09:43:37;10.00;73.00
83466;DHT22;73393;51.946;20.140;2024-02-16T09:46:05;10.00;73.70
83466;DHT22;73393;51.946;20.140;2024-02-16T09:48:31;10.10;73.50
83466;DHT22;73393;51.946;20.140;2024-02-16T09:50:58;10.20;73.00
83466;DHT22;73393;51.946;20.140;2024-02-16T09:53:27;10.30;72.80
83466;DHT22;73393;51.946;20.140;2024-02-16T09:55:54;10.30;72.70
83466;DHT22;73393;51.946;20.140;2024-02-16T09:58:20;10.40;72.50
83466;DHT22;73393;51.946;20.140;2024-02-16T10:00:53;10.50;72.30
83466;DHT22;73393;51.946;20.140;2024-02-16T10:03:30;10.50;71.90
83466;DHT22;73393;51.946;20.140;2024-02-16T10:06:05;10.60;71.60
83466;DHT22;73393;51.946;20.140;2024-02-16T10:08:32;10.60;71.60
83466;DHT22;73393;51.946;20.140;2024-02-16T10:11:02;10.70;71.20
83466;DHT22;73393;51.946;20.140;2024-02-16T10:13:29;10.70;71.20
83466;DHT22;73393;51.946;20.140;2024-02-16T10:16:07;10.80;71.50
83466;DHT22;73393;51.946;20.140;2024-02-16T10:18:37;10.90;71.30
83466;DHT22;73393;51.946;20.140;2024-02-16T10:21:04;11.00;70.60
83466;DHT22;73393;51.946;20.140;2024-02-16T10:23:30;11.00;70.50
83466;DHT22;73393;51.946;20.140;2024-02-16T10:25:57;11.10;70.40
83466;DHT22;73393;51.946;20.140;2024-02-16T10:28:24;11.10;70.80
83466;DHT22;73393;51.946;20.140;2024-02-16T10:30:58;11.20;70.40
83466;DHT22;73393;51.946;20.140;2024-02-16T10:33:27;11.30;70.70
83466;DHT22;73393;51.946;20.140;2024-02-16T10:35:55;11.40;70.90
83466;DHT22;73393;51.946;20.140;2024-02-16T10:38:22;11.40;70.20
83466;DHT22;73393;51.946;20.140;2024-02-16T10:40:51;11.50;70.20
83466;DHT22;73393;51.946;20.140;2024-02-16T10:43:18;11.60;70.20
83466;DHT22;73393;51.946;20.140;2024-02-16T10:45:43;11.60;70.40
83466;DHT22;73393;51.946;20.140;2024-02-16T10:48:10;11.70;69.60
83466;DHT22;73393;51.946;20.140;2024-02-16T10:50:37;11.80;69.30
83466;DHT22;73393;51.946;20.140;2024-02-16T10:53:18;11.90;69.30
83466;DHT22;73393;51.946;20.140;2024-02-16T10:55:45;11.90;69.10
83466;DHT22;73393;51.946;20.140;2024-02-16T10:58:11;12.00;69.10
83466;DHT22;73393;51.946;20.140;2024-02-16T11:00:48;12.10;69.60
83466;DHT22;73393;51.946;20.140;2024-02-16T11:03:16;12.20;69.10
83466;DHT22;73393;51.946;20.140;2024-02-16T11:05:42;12.30;68.10
83466;DHT22;73393;51.946;20.140;2024-02-16T11:08:16;12.30;67.80
83466;DHT22;73393;51.946;20.140;2024-02-16T11:10:54;12.40;67.90
83466;DHT22;73393;51.946;20.140;2024-02-16T11:13:24;12.50;67.90
83466;DHT22;73393;51.946;20.140;2024-02-16T11:16:09;12.50;67.00
83466;DHT22;73393;51.946;20.140;2024-02-16T11:18:42;12.50;67.60
83466;DHT22;73393;51.946;20.140;2024-02-16T11:21:15;12.60;67.60
83466;DHT22;73393;51.946;20.140;2024-02-16T11:23:41;12.60;68.10
83466;DHT22;73393;51.946;20.140;2024-02-16T11:26:11;12.70;67.20
83466;DHT22;73393;51.946;20.140;2024-02-16T11:28:38;12.80;67.00
83466;DHT22;73393;51.946;20.140;2024-02-16T11:31:04;12.90;66.00
83466;DHT22;73393;51.946;20.140;2024-02-16T11:33:31;12.90;66.10
83466;DHT22;73393;51.946;20.140;2024-02-16T11:35:58;13.00;65.40
83466;DHT22;73393;51.946;20.140;2024-02-16T11:38:25;13.00;65.20
83466;DHT22;73393;51.946;20.140;2024-02-16T11:41:04;13.00;65.20
83466;DHT22;73393;51.946;20.140;2024-02-16T11:43:30;13.20;65.30
83466;DHT22;73393;51.946;20.140;2024-02-16T11:46:10;13.20;65.20
83466;DHT22;73393;51.946;20.140;2024-02-16T11:48:35;13.30;65.10
83466;DHT22;73393;51.946;20.140;2024-02-16T11:51:03;13.30;64.80
83466;DHT22;73393;51.946;20.140;2024-02-16T11:53:29;13.40;64.40
83466;DHT22;73393;51.946;20.140;2024-02-16T11:55:55;13.40;64.60
83466;DHT22;73393;51.946;20.140;2024-02-16T11:58:21;13.30;64.50
83466;DHT22;73393;51.946;20.140;2024-02-16T12:00:49;13.40;65.00
83466;DHT22;73393;51.946;20.140;2024-02-16T12:05:51;13.40;64.50
83466;DHT22;73393;51.946;20.140;2024-02-16T12:08:16;13.50;65.00
83466;DHT22;73393;51.946;20.140;2024-02-16T12:10:42;13.60;64.30
83466;DHT22;73393;51.946;20.140;2024-02-16T12:13:09;13.70;63.80
83466;DHT22;73393;51.946;20.140;2024-02-16T12:15:37;13.70;64.20
83466;DHT22;73393;51.946;20.140;2024-02-16T12:18:03;13.80;64.20
83466;DHT22;73393;51.946;20.140;2024-02-16T12:20:30;13.90;63.50
83466;DHT22;73393;51.946;20.140;2024-02-16T12:22:56;13.90;62.30
83466;DHT22;73393;51.946;20.140;2024-02-16T12:25:22;14.00;61.00
83466;DHT22;73393;51.946;20.140;2024-02-16T12:27:47;14.10;60.20
83466;DHT22;73393;51.946;20.140;2024-02-16T12:30:13;14.10;59.80
83466;DHT22;73393;51.946;20.140;2024-02-16T12:32:39;14.10;60.20
83466;DHT22;73393;51.946;20.140;2024-02-16T12:35:04;14.10;59.80
83466;DHT22;73393;51.946;20.140;2024-02-16T12:37:31;14.10;59.90
83466;DHT22;73393;51.946;20.140;2024-02-16T12:39:56;14.20;60.00
83466;DHT22;73393;51.946;20.140;2024-02-16T12:42:22;14.20;59.30
83466;DHT22;73393;51.946;20.140;2024-02-16T12:44:47;14.20;58.70
83466;DHT22;73393;51.946;20.140;2024-02-16T12:47:13;14.20;58.10
83466;DHT22;73393;51.946;20.140;2024-02-16T12:49:38;14.30;57.90
83466;DHT22;73393;51.946;20.140;2024-02-16T12:52:04;14.30;57.80
83466;DHT22;73393;51.946;20.140;2024-02-16T12:54:30;14.30;57.00
83466;DHT22;73393;51.946;20.140;2024-02-16T12:56:57;14.30;57.30
83466;DHT22;73393;51.946;20.140;2024-02-16T12:59:22;14.30;57.50
83466;DHT22;73393;51.946;20.140;2024-02-16T13:01:48;14.30;57.50
83466;DHT22;73393;51.946;20.140;2024-02-16T13:04:13;14.40;57.20
83466;DHT22;73393;51.946;20.140;2024-02-16T13:06:46;14.40;58.00
83466;DHT22;73393;51.946;20.140;2024-02-16T13:09:11;14.40;57.20
83466;DHT22;73393;51.946;20.140;2024-02-16T13:11:38;14.40;57.10
83466;DHT22;73393;51.946;20.140;2024-02-16T13:14:05;14.40;57.40
83466;DHT22;73393;51.946;20.140;2024-02-16T13:16:31;14.40;57.40
83466;DHT22;73393;51.946;20.140;2024-02-16T13:18:56;14.50;57.10
83466;DHT22;73393;51.946;20.140;2024-02-16T13:21:22;14.50;57.10
83466;DHT22;73393;51.946;20.140;2024-02-16T13:23:47;14.50;57.10
83466;DHT22;73393;51.946;20.140;2024-02-16T13:26:13;14.50;57.30
83466;DHT22;73393;51.946;20.140;2024-02-16T13:28:38;14.50;57.10
83466;DHT22;73393;51.946;20.140;2024-02-16T13:31:04;14.50;57.40
83466;DHT22;73393;51.946;20.140;2024-02-16T13:33:30;14.50;57.50
83466;DHT22;73393;51.946;20.140;2024-02-16T13:35:55;14.50;57.00
83466;DHT22;73393;51.946;20.140;2024-02-16T13:38:21;14.50;56.10
83466;DHT22;73393;51.946;20.140;2024-02-16T13:40:47;14.40;56.10
83466;DHT22;73393;51.946;20.140;2024-02-16T13:43:13;14.40;56.60
83466;DHT22;73393;51.946;20.140;2024-02-16T13:45:52;14.40;56.30
83466;DHT22;73393;51.946;20.140;2024-02-16T13:48:18;14.40;57.00
83466;DHT22;73393;51.946;20.140;2024-02-16T13:50:48;14.40;57.10
83466;DHT22;73393;51.946;20.140;2024-02-16T13:53:14;14.40;56.90
83466;DHT22;73393;51.946;20.140;2024-02-16T13:55:44;14.40;56.80
83466;DHT22;73393;51.946;20.140;2024-02-16T13:58:13;14.40;56.30
83466;DHT22;73393;51.946;20.140;2024-02-16T14:00:38;14.30;56.90
83466;DHT22;73393;51.946;20.140;2024-02-16T14:03:06;14.30;57.10
83466;DHT22;73393;51.946;20.140;2024-02-16T14:05:39;14.20;57.50
83466;DHT22;73393;51.946;20.140;2024-02-16T14:08:07;14.20;57.60
83466;DHT22;73393;51.946;20.140;2024-02-16T14:10:34;14.20;57.00
83466;DHT22;73393;51.946;20.140;2024-02-16T14:13:00;14.20;57.40
83466;DHT22;73393;51.946;20.140;2024-02-16T14:15:26;14.10;57.80
83466;DHT22;73393;51.946;20.140;2024-02-16T14:17:51;14.10;58.10
83466;DHT22;73393;51.946;20.140;2024-02-16T14:20:17;14.10;57.70
83466;DHT22;73393;51.946;20.140;2024-02-16T14:22:43;14.00;57.90
83466;DHT22;73393;51.946;20.140;2024-02-16T14:25:11;14.10;58.10
83466;DHT22;73393;51.946;20.140;2024-02-16T14:27:38;14.00;58.20
83466;DHT22;73393;51.946;20.140;2024-02-16T14:30:05;13.90;58.50
83466;DHT22;73393;51.946;20.140;2024-02-16T14:32:31;13.90;58.70
83466;DHT22;73393;51.946;20.140;2024-02-16T14:34:56;13.90;58.30
83466;DHT22;73393;51.946;20.140;2024-02-16T14:37:22;13.80;58.90
83466;DHT22;73393;51.946;20.140;2024-02-16T14:39:47;13.70;59.00
83466;DHT22;73393;51.946;20.140;2024-02-16T14:42:14;13.60;59.50
83466;DHT22;73393;51.946;20.140;2024-02-16T14:44:39;13.60;58.80
83466;DHT22;73393;51.946;20.140;2024-02-16T14:47:05;13.60;59.10
83466;DHT22;73393;51.946;20.140;2024-02-16T14:49:30;13.50;59.40
83466;DHT22;73393;51.946;20.140;2024-02-16T14:51:57;13.50;59.50
83466;DHT22;73393;51.946;20.140;2024-02-16T14:54:23;13.50;59.40
83466;DHT22;73393;51.946;20.140;2024-02-16T14:56:52;13.40;59.60
83466;DHT22;73393;51.946;20.140;2024-02-16T14:59:18;13.40;60.30
83466;DHT22;73393;51.946;20.140;2024-02-16T15:01:44;13.30;60.50
83466;DHT22;73393;51.946;20.140;2024-02-16T15:04:09;13.20;60.60
83466;DHT22;73393;51.946;20.140;2024-02-16T15:06:35;13.20;61.00
83466;DHT22;73393;51.946;20.140;2024-02-16T15:09:01;13.10;61.30
83466;DHT22;73393;51.946;20.140;2024-02-16T15:11:30;13.00;61.40
83466;DHT22;73393;51.946;20.140;2024-02-16T15:13:57;13.00;61.80
83466;DHT22;73393;51.946;20.140;2024-02-16T15:16:22;12.90;61.90
83466;DHT22;73393;51.946;20.140;2024-02-16T15:18:48;12.80;62.10
83466;DHT22;73393;51.946;20.140;2024-02-16T15:21:13;12.70;62.50
83466;DHT22;73393;51.946;20.140;2024-02-16T15:23:39;12.70;62.70